createdAt,value
2023-03-31T00:01:46.829Z,8.65
2023-03-31T00:05:18.375Z,8.64
2023-03-31T00:08:45.486Z,8.61
2023-03-31T00:12:12.471Z,8.55
2023-03-31T00:15:39.990Z,8.49
2023-03-31T00:19:10.282Z,8.44
2023-03-31T00:22:38.639Z,8.37
2023-03-31T00:26:06.348Z,8.32
2023-03-31T00:29:35.956Z,8.28
2023-03-31T00:33:03.177Z,8.25
2023-03-31T00:36:30.320Z,8.21
2023-03-31T00:39:57.471Z,8.18
2023-03-31T00:43:35.803Z,8.14
2023-03-31T00:47:07.213Z,8.09
2023-03-31T00:50:38.454Z,8.03
2023-03-31T00:54:09.187Z,7.96
2023-03-31T00:57:39.681Z,7.91
2023-03-31T01:01:08.427Z,7.86
2023-03-31T01:04:40.359Z,7.82
2023-03-31T01:08:08.727Z,7.77
2023-03-31T01:11:37.119Z,7.74
2023-03-31T01:15:04.948Z,7.69
2023-03-31T01:18:34.989Z,7.64
2023-03-31T01:22:41.225Z,7.59
2023-03-31T01:26:39.900Z,7.51
2023-03-31T01:30:38.252Z,7.46
2023-03-31T01:34:38.760Z,7.44
2023-03-31T01:38:31.383Z,7.44
2023-03-31T01:42:06.643Z,7.45
2023-03-31T01:45:47.427Z,7.49
2023-03-31T01:49:25.210Z,7.52
2023-03-31T01:52:58.119Z,7.54
2023-03-31T01:56:33.158Z,7.58
2023-03-31T02:00:07.520Z,7.60
2023-03-31T02:03:42.053Z,7.63
2023-03-31T02:07:17.526Z,7.64
2023-03-31T02:10:47.747Z,7.67
2023-03-31T02:14:18.897Z,7.67
2023-03-31T02:17:51.133Z,7.69
2023-03-31T02:21:20.680Z,7.69
2023-03-31T02:24:51.758Z,7.68
2023-03-31T02:28:22.518Z,7.68
2023-03-31T02:31:57.899Z,7.69
2023-03-31T02:35:25.604Z,7.69
2023-03-31T02:38:57.031Z,7.70
2023-03-31T02:42:24.252Z,7.71
2023-03-31T02:45:53.227Z,7.71
2023-03-31T02:49:21.428Z,7.70
2023-03-31T02:52:57.637Z,7.70
2023-03-31T02:56:37.303Z,7.70
2023-03-31T03:00:14.560Z,7.70
2023-03-31T03:03:52.400Z,7.70
2023-03-31T03:07:30.829Z,7.69
2023-03-31T03:11:07.778Z,7.69
2023-03-31T03:14:41.987Z,7.69
2023-03-31T03:18:09.821Z,7.69
2023-03-31T03:21:36.909Z,7.68
2023-03-31T03:25:04.230Z,7.68
2023-03-31T03:28:31.534Z,7.69
2023-03-31T03:31:58.689Z,7.68
2023-03-31T03:35:25.812Z,7.70
2023-03-31T03:38:52.862Z,7.72
2023-03-31T03:42:19.874Z,7.74
2023-03-31T03:45:50.584Z,7.77
2023-03-31T03:49:17.640Z,7.79
2023-03-31T03:52:44.632Z,7.81
2023-03-31T03:56:11.602Z,7.84
2023-03-31T03:59:38.563Z,7.86
2023-03-31T04:03:05.626Z,7.87
2023-03-31T04:06:32.738Z,7.88
2023-03-31T04:09:59.843Z,7.90
2023-03-31T04:13:27.079Z,7.90
2023-03-31T04:16:56.555Z,7.91
2023-03-31T04:20:28.100Z,7.93
2023-03-31T04:24:01.854Z,7.95
2023-03-31T04:27:29.062Z,7.96
2023-03-31T04:30:59.163Z,7.98
2023-03-31T04:34:34.919Z,7.99
2023-03-31T04:38:02.736Z,7.99
2023-03-31T04:41:29.940Z,8.00
2023-03-31T04:44:57.088Z,8.01
2023-03-31T04:48:24.116Z,8.02
2023-03-31T04:51:51.330Z,8.04
2023-03-31T04:55:18.998Z,8.06
2023-03-31T04:58:46.234Z,8.08
2023-03-31T05:02:13.305Z,8.11
2023-03-31T05:05:40.770Z,8.15
2023-03-31T05:09:09.792Z,8.18
2023-03-31T05:12:38.780Z,8.23
2023-03-31T05:16:12.341Z,8.26
2023-03-31T05:19:39.547Z,8.31
2023-03-31T05:23:07.043Z,8.37
2023-03-31T05:26:34.067Z,8.43
2023-03-31T05:30:01.168Z,8.49
2023-03-31T05:33:28.667Z,8.55
2023-03-31T05:36:55.918Z,8.61
2023-03-31T05:40:23.117Z,8.67
2023-03-31T05:43:50.170Z,8.73
2023-03-31T05:47:17.176Z,8.81
2023-03-31T05:50:44.198Z,8.89
2023-03-31T05:54:11.319Z,9.00
2023-03-31T05:57:38.389Z,9.09
2023-03-31T06:01:08.429Z,9.19
2023-03-31T06:04:37.336Z,9.29
2023-03-31T06:08:04.792Z,9.35
2023-03-31T06:11:32.160Z,9.42
2023-03-31T06:14:59.330Z,9.49
2023-03-31T06:18:28.708Z,9.59
2023-03-31T06:21:54.376Z,9.70
2023-03-31T06:25:21.803Z,9.80
2023-03-31T06:28:49.659Z,9.93
2023-03-31T06:32:16.899Z,10.06
2023-03-31T06:35:44.204Z,10.20
2023-03-31T06:39:11.478Z,10.35
2023-03-31T06:42:38.659Z,10.52
2023-03-31T06:46:07.129Z,10.67
2023-03-31T06:49:34.560Z,10.82
2023-03-31T06:53:01.701Z,10.96
2023-03-31T06:56:29.205Z,11.13
2023-03-31T06:59:56.847Z,11.29
2023-03-31T07:03:25.217Z,11.45
2023-03-31T07:06:52.645Z,11.60
2023-03-31T07:10:19.719Z,11.76
2023-03-31T07:13:46.700Z,11.94
2023-03-31T07:17:13.826Z,12.07
2023-03-31T07:20:41.357Z,12.18
2023-03-31T07:24:08.825Z,12.27
2023-03-31T07:27:36.710Z,12.37
2023-03-31T07:31:04.333Z,12.45
2023-03-31T07:34:32.184Z,12.58
2023-03-31T07:37:59.373Z,12.79
2023-03-31T07:41:27.300Z,13.03
2023-03-31T07:44:54.392Z,13.19
2023-03-31T07:48:21.572Z,13.33
2023-03-31T07:51:48.770Z,13.47
2023-03-31T07:55:16.752Z,13.50
2023-03-31T07:58:43.816Z,13.47
2023-03-31T08:02:13.620Z,13.51
2023-03-31T08:05:41.144Z,13.60
2023-03-31T08:09:08.846Z,13.69
2023-03-31T08:12:36.585Z,13.74
2023-03-31T08:16:05.288Z,13.73
2023-03-31T08:19:32.554Z,13.72
2023-03-31T08:23:00.390Z,13.74
2023-03-31T08:26:28.572Z,13.79
2023-03-31T08:29:56.391Z,13.91
2023-03-31T08:33:24.469Z,14.02
2023-03-31T08:36:52.034Z,14.13
2023-03-31T08:40:26.097Z,14.35
2023-03-31T08:43:56.134Z,14.63
2023-03-31T08:47:27.580Z,14.89
2023-03-31T08:50:59.206Z,15.07
2023-03-31T08:54:34.652Z,15.21
2023-03-31T08:58:05.141Z,15.29
2023-03-31T09:01:54.772Z,15.28
2023-03-31T09:05:59.507Z,15.32
2023-03-31T09:09:38.793Z,15.46
2023-03-31T09:13:19.171Z,15.60
2023-03-31T09:16:56.056Z,15.75
2023-03-31T09:20:28.973Z,15.91
2023-03-31T09:24:02.220Z,16.13
2023-03-31T09:27:34.889Z,16.32
2023-03-31T09:31:05.224Z,16.45
2023-03-31T09:34:36.532Z,16.57
2023-03-31T09:38:04.292Z,16.71
2023-03-31T09:41:33.102Z,16.96
2023-03-31T09:45:01.493Z,17.23
2023-03-31T09:48:30.810Z,17.47
2023-03-31T09:52:06.259Z,17.70
2023-03-31T09:55:43.920Z,17.77
2023-03-31T09:59:18.383Z,17.78
2023-03-31T10:02:49.909Z,17.86
2023-03-31T10:06:20.115Z,17.96
2023-03-31T10:09:47.651Z,18.08
2023-03-31T10:13:18.533Z,18.16
2023-03-31T10:16:49.898Z,18.21
2023-03-31T10:20:32.026Z,18.15
2023-03-31T10:24:09.168Z,18.12
2023-03-31T10:27:37.448Z,18.06
2023-03-31T10:31:06.415Z,18.02
2023-03-31T10:34:35.046Z,17.98
2023-03-31T10:38:06.192Z,17.95
2023-03-31T10:41:33.843Z,17.90
2023-03-31T10:45:36.309Z,17.90
2023-03-31T10:49:23.358Z,18.05
2023-03-31T10:52:51.466Z,18.19
2023-03-31T10:56:31.922Z,18.29
2023-03-31T11:00:20.491Z,18.38
2023-03-31T11:04:17.508Z,18.35
2023-03-31T11:07:55.294Z,18.20
2023-03-31T11:11:33.067Z,18.06
2023-03-31T11:15:16.937Z,17.95
2023-03-31T11:18:57.872Z,17.91
2023-03-31T11:22:32.228Z,17.90
2023-03-31T11:26:04.258Z,17.78
2023-03-31T11:29:38.798Z,17.63
2023-03-31T11:33:35.145Z,17.51
2023-03-31T11:37:21.573Z,17.43
2023-03-31T11:41:01.355Z,17.39
2023-03-31T11:44:32.166Z,17.33
2023-03-31T11:48:06.892Z,17.21
2023-03-31T11:51:43.255Z,17.13
2023-03-31T11:55:16.786Z,16.92
2023-03-31T11:58:51.649Z,16.63
2023-03-31T12:02:22.559Z,16.39
2023-03-31T12:05:53.183Z,16.10
2023-03-31T12:09:26.688Z,15.77
2023-03-31T12:12:57.526Z,15.53
2023-03-31T12:16:28.368Z,15.44
2023-03-31T12:19:59.141Z,15.52
2023-03-31T12:23:29.972Z,15.64
2023-03-31T12:27:06.480Z,15.73
2023-03-31T12:30:38.987Z,15.78
2023-03-31T12:34:09.860Z,15.80
2023-03-31T12:38:01.710Z,15.79
2023-03-31T12:41:38.499Z,15.75
2023-03-31T12:45:16.752Z,15.69
2023-03-31T12:48:59.096Z,15.62
2023-03-31T12:52:37.897Z,15.42
2023-03-31T12:56:06.364Z,15.27
2023-03-31T12:59:37.067Z,15.15
2023-03-31T13:03:45.192Z,15.03
2023-03-31T13:07:35.843Z,14.94
2023-03-31T13:11:03.091Z,14.95
2023-03-31T13:14:37.834Z,15.04
2023-03-31T13:18:07.603Z,15.21
2023-03-31T13:21:52.985Z,15.35
2023-03-31T13:25:53.396Z,15.47
2023-03-31T13:29:26.856Z,15.51
2023-03-31T13:33:10.988Z,15.60
2023-03-31T13:37:00.853Z,15.79
2023-03-31T13:40:56.049Z,16.00
2023-03-31T13:44:55.544Z,16.18
2023-03-31T13:48:51.196Z,16.29
2023-03-31T13:52:26.596Z,16.41
2023-03-31T13:56:16.623Z,16.53
2023-03-31T14:00:11.780Z,16.63
2023-03-31T14:03:56.392Z,16.67
2023-03-31T14:07:32.350Z,16.65
2023-03-31T14:11:19.074Z,16.52
2023-03-31T14:14:46.123Z,16.32
2023-03-31T14:18:17.828Z,16.11
2023-03-31T14:21:50.082Z,15.85
2023-03-31T14:25:29.274Z,15.58
2023-03-31T14:29:12.693Z,15.27
2023-03-31T14:32:47.653Z,15.05
2023-03-31T14:36:22.372Z,14.93
2023-03-31T14:39:52.793Z,14.81
2023-03-31T14:43:26.662Z,14.68
2023-03-31T14:46:53.938Z,14.50
2023-03-31T14:50:21.904Z,14.26
2023-03-31T14:53:49.009Z,14.02
2023-03-31T14:57:19.403Z,13.73
2023-03-31T15:00:46.644Z,13.54
2023-03-31T15:04:17.294Z,13.43
2023-03-31T15:07:44.703Z,13.39
2023-03-31T15:11:19.549Z,13.38
2023-03-31T15:14:49.612Z,13.30
2023-03-31T15:18:18.418Z,13.21
2023-03-31T15:21:46.603Z,13.10
2023-03-31T15:25:18.853Z,13.02
2023-03-31T15:28:53.607Z,12.91
2023-03-31T15:32:29.467Z,12.83
2023-03-31T15:35:58.469Z,12.72
2023-03-31T15:39:27.383Z,12.63
2023-03-31T15:46:58.984Z,12.54
2023-03-31T15:50:32.934Z,12.52
2023-03-31T15:54:05.019Z,12.51
2023-03-31T15:57:39.189Z,12.50
2023-03-31T16:01:08.727Z,12.44
2023-03-31T16:04:37.440Z,12.38
2023-03-31T16:08:13.468Z,12.31
2023-03-31T16:11:46.866Z,12.19
2023-03-31T16:15:19.770Z,12.04
2023-03-31T16:18:54.364Z,11.87
2023-03-31T16:22:27.566Z,11.71
2023-03-31T16:25:58.451Z,11.56
2023-03-31T16:29:28.972Z,11.38
2023-03-31T16:33:08.959Z,11.26
2023-03-31T16:36:38.419Z,11.15
2023-03-31T16:40:08.211Z,11.06
2023-03-31T16:43:40.526Z,11.00
2023-03-31T16:47:13.223Z,10.95
2023-03-31T16:50:47.110Z,10.88
2023-03-31T16:54:15.256Z,10.83
2023-03-31T16:57:45.445Z,10.79
2023-03-31T17:01:16.790Z,10.74
2023-03-31T17:04:44.908Z,10.70
2023-03-31T17:08:13.765Z,10.66
2023-03-31T17:11:43.719Z,10.61
2023-03-31T17:15:16.396Z,10.58
2023-03-31T17:18:47.402Z,10.55
2023-03-31T17:22:17.109Z,10.52
2023-03-31T17:25:52.889Z,10.46
2023-03-31T17:29:20.766Z,10.40
2023-03-31T17:32:51.578Z,10.35
2023-03-31T17:36:22.599Z,10.30
2023-03-31T17:39:50.910Z,10.25
2023-03-31T17:43:19.900Z,10.20
2023-03-31T17:46:49.658Z,10.16
2023-03-31T17:50:16.113Z,10.13
2023-03-31T17:53:52.019Z,10.11
2023-03-31T17:57:20.863Z,10.08
2023-03-31T18:00:56.894Z,10.05
2023-03-31T18:04:26.201Z,10.03
2023-03-31T18:07:54.018Z,10.01
2023-03-31T18:11:25.421Z,9.97
2023-03-31T18:14:57.402Z,9.94
2023-03-31T18:18:31.869Z,9.91
2023-03-31T18:22:06.200Z,9.89
2023-03-31T18:25:34.768Z,9.87
2023-03-31T18:29:08.412Z,9.85
2023-03-31T18:32:39.025Z,9.84
2023-03-31T18:36:28.716Z,9.82
2023-03-31T18:40:00.168Z,9.80
2023-03-31T18:43:32.114Z,9.78
2023-03-31T18:47:03.066Z,9.76
2023-03-31T18:50:35.424Z,9.74
2023-03-31T18:54:05.126Z,9.72
2023-03-31T18:57:33.744Z,9.70
2023-03-31T19:01:05.895Z,9.67
2023-03-31T19:04:34.805Z,9.65
2023-03-31T19:08:04.299Z,9.63
2023-03-31T19:11:33.972Z,9.61
2023-03-31T19:15:02.344Z,9.59
2023-03-31T19:18:31.225Z,9.57
2023-03-31T19:21:58.517Z,9.55
2023-03-31T19:25:25.561Z,9.54
2023-03-31T19:28:55.905Z,9.53
2023-03-31T19:32:23.132Z,9.52
2023-03-31T19:35:51.066Z,9.52
2023-03-31T19:39:18.462Z,9.52
2023-03-31T19:42:45.531Z,9.52
2023-03-31T19:46:12.586Z,9.51
2023-03-31T19:49:39.971Z,9.50
2023-03-31T19:53:07.098Z,9.48
2023-03-31T19:56:34.639Z,9.47
2023-03-31T20:00:04.136Z,9.48
2023-03-31T20:03:33.306Z,9.47
2023-03-31T20:07:00.895Z,9.47
2023-03-31T20:10:27.943Z,9.46
2023-03-31T20:13:55.375Z,9.46
2023-03-31T20:17:22.822Z,9.46
2023-03-31T20:20:49.906Z,9.44
2023-03-31T20:24:20.722Z,9.43
2023-03-31T20:27:47.973Z,9.41
2023-03-31T20:31:17.832Z,9.39
2023-03-31T20:34:45.388Z,9.38
2023-03-31T20:38:12.658Z,9.35
2023-03-31T20:41:40.207Z,9.32
2023-03-31T20:45:09.233Z,9.30
2023-03-31T20:48:39.771Z,9.27
2023-03-31T20:52:07.441Z,9.26
2023-03-31T20:55:34.661Z,9.25
2023-03-31T20:59:02.657Z,9.22
2023-03-31T21:02:29.826Z,9.20
2023-03-31T21:05:57.875Z,9.18
2023-03-31T21:09:24.985Z,9.17
2023-03-31T21:12:52.755Z,9.16
2023-03-31T21:16:20.673Z,9.14
2023-03-31T21:19:47.686Z,9.13
2023-03-31T21:23:14.856Z,9.11
2023-03-31T21:26:41.981Z,9.09
2023-03-31T21:30:11.595Z,9.08
2023-03-31T21:33:41.701Z,9.07
2023-03-31T21:37:09.954Z,9.06
2023-03-31T21:40:37.455Z,9.05
2023-03-31T21:44:04.776Z,9.03
2023-03-31T21:47:31.894Z,9.02
2023-03-31T21:51:03.320Z,9.00
2023-03-31T21:54:30.459Z,9.00
2023-03-31T21:57:57.998Z,8.99
2023-03-31T22:01:25.067Z,8.98
2023-03-31T22:04:52.420Z,8.98
2023-03-31T22:08:19.463Z,8.98
2023-03-31T22:11:46.869Z,8.97
2023-03-31T22:15:14.394Z,8.96
2023-03-31T22:18:41.457Z,8.95
2023-03-31T22:22:08.703Z,8.95
2023-03-31T22:25:36.642Z,8.94
2023-03-31T22:29:03.845Z,8.93
2023-03-31T22:32:31.045Z,8.93
2023-03-31T22:35:58.247Z,8.92
2023-03-31T22:39:25.501Z,8.91
2023-03-31T22:42:54.905Z,8.91
2023-03-31T22:46:22.415Z,8.89
2023-03-31T22:49:49.418Z,8.88
2023-03-31T22:53:16.780Z,8.88
2023-03-31T22:56:45.413Z,8.88
2023-03-31T23:00:14.386Z,8.89
2023-03-31T23:03:41.669Z,8.88
2023-03-31T23:07:08.654Z,8.87
2023-03-31T23:10:36.311Z,8.86
2023-03-31T23:14:04.695Z,8.85
2023-03-31T23:17:32.049Z,8.84
2023-03-31T23:20:59.263Z,8.83
2023-03-31T23:24:26.265Z,8.83
2023-03-31T23:27:53.364Z,8.81
2023-03-31T23:31:22.252Z,8.80
2023-03-31T23:34:49.768Z,8.79
2023-03-31T23:38:16.823Z,8.78
2023-03-31T23:41:44.010Z,8.76
2023-03-31T23:45:12.519Z,8.76
2023-03-31T23:48:40.358Z,8.74
2023-03-31T23:52:07.633Z,8.74
2023-03-31T23:55:34.824Z,8.75
2023-03-31T23:59:02.209Z,8.73
